WetterOnline ( http://www.wetteronline.de )

Wetter aktuell Wahrenbrück

Aktuelles Wetter: Kirchhain (100m)

6-stündlich | Neueste Meldungen
Ortszeit Temperatur Wetter
Di, 21.08. 2:00 20.9° C bedeckt
Mo, 20.08. 20:00 24.1° C bedeckt
Mo, 20.08. 14:00 25.2° C bedeckt
Mo, 20.08. 8:00 19.3° C fast wolkenlos
Mo, 20.08. 2:00 19.4° C bedeckt
So, 19.08. 20:00 29.1° C fast wolkenlos
So, 19.08. 14:00 29.9° C wolkig
So, 19.08. 8:00 17.8° C leicht bewölkt
Ortszeit Temperatur Wetter
Di, 21.08. 4:30 19.6° C bedeckt
Di, 21.08. 4:20 19.6° C bedeckt
Di, 21.08. 4:10 19.6° C bedeckt
Di, 21.08. 4:00 19.9° C bedeckt
Di, 21.08. 3:50 19.9° C bedeckt
Di, 21.08. 3:40 20.0° C bedeckt
Di, 21.08. 3:30 20.3° C bedeckt
Di, 21.08. 3:00 20.5° C bedeckt
Di, 21.08. 2:30 20.6° C bedeckt
Di, 21.08. 2:00 20.9° C bedeckt
Di, 21.08. 1:30 21.0° C bedeckt
Ortszeit Relative Feuchte Sichtweite
Di, 21.08. 2:00 69% 50 km
Mo, 20.08. 20:00 50% 70 km
Mo, 20.08. 14:00 48% 35 km
Mo, 20.08. 8:00 63% 26 km
Mo, 20.08. 2:00 69% 27 km
So, 19.08. 20:00 31% 70 km
So, 19.08. 14:00 36% 35 km
So, 19.08. 8:00 81% 13 km
Ortszeit Relative Feuchte Sichtweite
Di, 21.08. 4:30 73% 70 km
Di, 21.08. 4:20 73% -
Di, 21.08. 4:10 73% -
Di, 21.08. 4:00 72% 70 km
Di, 21.08. 3:50 72% -
Di, 21.08. 3:40 72% -
Di, 21.08. 3:30 71% 70 km
Di, 21.08. 3:00 71% 65 km
Di, 21.08. 2:30 71% 60 km
Di, 21.08. 2:00 69% 50 km
Di, 21.08. 1:30 68% 45 km
Ortszeit Niederschlagsmenge Niederschlagsart
Di, 21.08. 2:00 0.0 l/m2 in 6 Std. -
Mo, 20.08. 20:00 0.0 l/m2 in 12 Std. -
Mo, 20.08. 14:00 0.0 l/m2 in 6 Std. -
Mo, 20.08. 8:00 0.0 l/m2 in 12 Std. -
Mo, 20.08. 2:00 0.0 l/m2 in 6 Std. -
So, 19.08. 20:00 0.0 l/m2 in 12 Std. -
So, 19.08. 14:00 0.0 l/m2 in 6 Std. -
So, 19.08. 8:00 0.0 l/m2 in 12 Std. -
Ortszeit Niederschlagsmenge Niederschlagsart
Di, 21.08. 4:30 0.0 l/m2 in 1 Std. -
Di, 21.08. 4:20 keine Meldung -
Di, 21.08. 4:10 keine Meldung -
Di, 21.08. 4:00 0.0 l/m2 in 1 Std. -
Di, 21.08. 3:50 keine Meldung -
Di, 21.08. 3:40 keine Meldung -
Di, 21.08. 3:30 0.0 l/m2 in 1 Std. -
Di, 21.08. 3:00 0.0 l/m2 in 1 Std. -
Di, 21.08. 2:30 0.0 l/m2 in 1 Std. -
Di, 21.08. 2:00 0.0 l/m2 in 1 Std. -
Di, 21.08. 1:30 0.0 l/m2 in 1 Std. -
Ortszeit Stärke Spitze Richtung
km/h Bft. km/h Grad Sektor
Di, 21.08. 2:00 11 2 25 310° NW
Mo, 20.08. 20:00 14 3 43 290° W
Mo, 20.08. 14:00 25 4 40 300° NW
Mo, 20.08. 8:00 4 1 14 250° W
Mo, 20.08. 2:00 11 2 15 200° S
So, 19.08. 20:00 9 2 24 260° W
So, 19.08. 14:00 11 2 22 170° S
So, 19.08. 8:00 0 0 11 - -
Ortszeit Stärke Spitze Richtung
km/h Bft. km/h Grad Sektor
Di, 21.08. 4:30 9 2 15 310° NW
Di, 21.08. 4:20 9 2 - 310° NW
Di, 21.08. 4:10 9 2 - 320° NW
Di, 21.08. 4:00 11 2 18 310° NW
Di, 21.08. 3:50 11 2 - 310° NW
Di, 21.08. 3:40 11 2 - 310° NW
Di, 21.08. 3:30 13 3 19 330° NW
Di, 21.08. 3:00 11 2 15 310° NW
Di, 21.08. 2:30 7 2 11 320° NW
Di, 21.08. 2:00 11 2 14 310° NW
Di, 21.08. 1:30 7 2 11 300° NW
Ortszeit Untergrenze Bedeckung Gattung
total tief tief mittel hoch
Di, 21.08. 2:00 1800 m 8/8 8/8 - - -
Mo, 20.08. 20:00 1800 m 8/8 8/8 - - -
Mo, 20.08. 14:00 1470 m 8/8 8/8 - - -
Mo, 20.08. 8:00 3600 m 1/8 1/8 - - -
Mo, 20.08. 2:00 - 8/8 - - - -
So, 19.08. 20:00 3000 m 1/8 1/8 - - -
So, 19.08. 14:00 1800 m 8/8 4/8 - - -
So, 19.08. 8:00 10500 m 7/8 0/8 - - -
Ortszeit Bedeckungsgrad in Achtel und Wolkenuntergrenze
Di, 21.08. 4:30 8(2100m)
Di, 21.08. 4:20 8(2100m)
Di, 21.08. 4:10 8(2100m)
Di, 21.08. 4:00 8(2100m)
Di, 21.08. 3:50 8(2100m)
Di, 21.08. 3:40 8(2100m)
Di, 21.08. 3:30 8(2100m)
Di, 21.08. 3:00 8(2100m)
Di, 21.08. 2:30 8(1800m)
Di, 21.08. 2:00 8(1800m)
Di, 21.08. 1:30 8(1800m)
Ortszeit Luftdruck NN (hPa) Tendenz (hPa in 3 Std.)
Di, 21.08. 2:00 1019 + 0,9
Mo, 20.08. 20:00 1017 + 0,1
Mo, 20.08. 14:00 1017 + 0,1
Mo, 20.08. 8:00 1017 + 0,8
Mo, 20.08. 2:00 1016 - 0,5
So, 19.08. 20:00 1016 - 1,2
So, 19.08. 14:00 1019 - 1,8
So, 19.08. 8:00 1022 + 0,4
Ortszeit Luftdruck NN (hPa) Tendenz (hPa in 3 Std.)
Di, 21.08. 4:30 1020 + 0,5
Di, 21.08. 4:20 1020 keine Meldung
Di, 21.08. 4:10 1019 keine Meldung
Di, 21.08. 4:00 1019 + 0,7
Di, 21.08. 3:50 1019 keine Meldung
Di, 21.08. 3:40 1019 keine Meldung
Di, 21.08. 3:30 1019 + 0,7
Di, 21.08. 3:00 1019 + 0,6
Di, 21.08. 2:30 1019 + 0,9
Di, 21.08. 2:00 1019 + 0,9
Di, 21.08. 1:30 1019 + 0,9
Ortszeit Schneehöhe (cm)
Di, 21.08. 2:00 -
Mo, 20.08. 20:00 -
Mo, 20.08. 14:00 -
Mo, 20.08. 8:00 -
Mo, 20.08. 2:00 -
So, 19.08. 20:00 -
So, 19.08. 14:00 -
So, 19.08. 8:00 -
Ortszeit Schneehöhe (cm)
Di, 21.08. 4:30 -
Di, 21.08. 4:20 -
Di, 21.08. 4:10 -
Di, 21.08. 4:00 -
Di, 21.08. 3:50 -
Di, 21.08. 3:40 -
Di, 21.08. 3:30 -
Di, 21.08. 3:00 -
Di, 21.08. 2:30 -
Di, 21.08. 2:00 -
Di, 21.08. 1:30 -
Link zu dieser Seite / Seite empfehlen

Das Wetter in ...